sensor_id;sensor_type;location;lat;lon;timestamp;P1;durP1;ratioP1;P2;durP2;ratioP2
61206;SDS011;47070;49.212;8.084;2022-11-15T00:02:56;922.23;;;864.53;;
61206;SDS011;47070;49.212;8.084;2022-11-15T00:06:56;923.97;;;866.27;;
61206;SDS011;47070;49.212;8.084;2022-11-15T00:10:57;933.30;;;875.23;;
61206;SDS011;47070;49.212;8.084;2022-11-15T00:14:59;923.75;;;866.05;;
61206;SDS011;47070;49.212;8.084;2022-11-15T00:18:59;932.20;;;874.17;;
61206;SDS011;47070;49.212;8.084;2022-11-15T00:23:00;926.35;;;868.45;;
61206;SDS011;47070;49.212;8.084;2022-11-15T00:27:02;926.97;;;869.17;;
61206;SDS011;47070;49.212;8.084;2022-11-15T00:31:04;926.83;;;869.15;;
61206;SDS011;47070;49.212;8.084;2022-11-15T00:35:05;925.38;;;867.70;;
61206;SDS011;47070;49.212;8.084;2022-11-15T00:39:06;926.15;;;868.53;;
61206;SDS011;47070;49.212;8.084;2022-11-15T00:43:07;932.22;;;874.30;;
61206;SDS011;47070;49.212;8.084;2022-11-15T00:47:07;937.73;;;879.47;;
61206;SDS011;47070;49.212;8.084;2022-11-15T00:51:08;929.05;;;871.05;;
61206;SDS011;47070;49.212;8.084;2022-11-15T00:55:17;921.17;;;863.57;;
61206;SDS011;47070;49.212;8.084;2022-11-15T00:59:19;930.60;;;872.58;;
61206;SDS011;47070;49.212;8.084;2022-11-15T01:03:19;934.73;;;876.73;;
61206;SDS011;47070;49.212;8.084;2022-11-15T01:07:20;926.67;;;868.90;;
61206;SDS011;47070;49.212;8.084;2022-11-15T01:11:20;946.47;;;887.97;;
61206;SDS011;47070;49.212;8.084;2022-11-15T01:15:21;939.20;;;881.00;;
61206;SDS011;47070;49.212;8.084;2022-11-15T01:19:21;946.85;;;888.42;;
61206;SDS011;47070;49.212;8.084;2022-11-15T01:23:22;935.13;;;877.23;;
61206;SDS011;47070;49.212;8.084;2022-11-15T01:27:22;914.60;;;857.30;;
61206;SDS011;47070;49.212;8.084;2022-11-15T01:31:23;929.37;;;871.47;;
61206;SDS011;47070;49.212;8.084;2022-11-15T01:35:23;921.25;;;863.67;;
61206;SDS011;47070;49.212;8.084;2022-11-15T01:39:24;933.57;;;875.60;;
61206;SDS011;47070;49.212;8.084;2022-11-15T01:43:26;936.77;;;878.77;;
61206;SDS011;47070;49.212;8.084;2022-11-15T01:47:36;931.67;;;873.88;;
61206;SDS011;47070;49.212;8.084;2022-11-15T01:51:40;932.73;;;874.90;;
61206;SDS011;47070;49.212;8.084;2022-11-15T01:55:40;948.70;;;889.93;;
61206;SDS011;47070;49.212;8.084;2022-11-15T01:59:42;951.72;;;892.92;;
61206;SDS011;47070;49.212;8.084;2022-11-15T02:03:49;952.45;;;893.50;;
61206;SDS011;47070;49.212;8.084;2022-11-15T02:07:54;950.22;;;891.38;;
61206;SDS011;47070;49.212;8.084;2022-11-15T02:11:55;953.60;;;894.87;;
61206;SDS011;47070;49.212;8.084;2022-11-15T02:29:29;952.97;;;894.20;;
61206;SDS011;47070;49.212;8.084;2022-11-15T02:38:26;960.57;;;901.60;;
61206;SDS011;47070;49.212;8.084;2022-11-15T02:42:39;969.28;;;909.63;;
61206;SDS011;47070;49.212;8.084;2022-11-15T02:47:04;964.95;;;905.67;;
61206;SDS011;47070;49.212;8.084;2022-11-15T02:51:13;959.63;;;900.60;;
61206;SDS011;47070;49.212;8.084;2022-11-15T02:59:56;975.25;;;915.75;;
61206;SDS011;47070;49.212;8.084;2022-11-15T03:04:19;970.70;;;911.30;;
61206;SDS011;47070;49.212;8.084;2022-11-15T03:17:28;970.92;;;911.22;;
61206;SDS011;47070;49.212;8.084;2022-11-15T03:21:32;975.97;;;916.20;;
61206;SDS011;47070;49.212;8.084;2022-11-15T03:25:37;965.30;;;905.95;;
61206;SDS011;47070;49.212;8.084;2022-11-15T03:29:44;960.23;;;901.03;;
61206;SDS011;47070;49.212;8.084;2022-11-15T03:33:55;962.78;;;903.42;;
61206;SDS011;47070;49.212;8.084;2022-11-15T03:38:00;954.58;;;895.60;;
61206;SDS011;47070;49.212;8.084;2022-11-15T03:42:27;950.20;;;891.53;;
61206;SDS011;47070;49.212;8.084;2022-11-15T03:46:37;957.42;;;898.55;;
61206;SDS011;47070;49.212;8.084;2022-11-15T03:50:47;940.45;;;882.22;;
61206;SDS011;47070;49.212;8.084;2022-11-15T03:54:49;954.88;;;896.20;;
61206;SDS011;47070;49.212;8.084;2022-11-15T03:58:54;948.05;;;889.38;;
61206;SDS011;47070;49.212;8.084;2022-11-15T04:02:55;940.22;;;881.90;;
61206;SDS011;47070;49.212;8.084;2022-11-15T04:06:56;945.47;;;886.87;;
61206;SDS011;47070;49.212;8.084;2022-11-15T04:10:56;937.67;;;879.53;;
61206;SDS011;47070;49.212;8.084;2022-11-15T04:15:04;941.57;;;883.07;;
61206;SDS011;47070;49.212;8.084;2022-11-15T04:19:09;939.78;;;881.40;;
61206;SDS011;47070;49.212;8.084;2022-11-15T04:23:28;952.42;;;893.55;;
61206;SDS011;47070;49.212;8.084;2022-11-15T04:27:47;946.95;;;888.35;;
61206;SDS011;47070;49.212;8.084;2022-11-15T04:31:47;950.60;;;892.00;;
61206;SDS011;47070;49.212;8.084;2022-11-15T04:35:48;948.22;;;889.58;;
61206;SDS011;47070;49.212;8.084;2022-11-15T04:40:08;956.33;;;897.42;;
61206;SDS011;47070;49.212;8.084;2022-11-15T04:44:09;950.10;;;891.38;;
61206;SDS011;47070;49.212;8.084;2022-11-15T04:48:09;958.70;;;899.73;;
61206;SDS011;47070;49.212;8.084;2022-11-15T04:52:10;945.87;;;887.27;;
61206;SDS011;47070;49.212;8.084;2022-11-15T04:56:11;952.43;;;893.73;;
61206;SDS011;47070;49.212;8.084;2022-11-15T05:00:12;947.72;;;889.17;;
61206;SDS011;47070;49.212;8.084;2022-11-15T05:04:14;941.45;;;883.10;;
61206;SDS011;47070;49.212;8.084;2022-11-15T05:08:21;944.27;;;885.53;;
61206;SDS011;47070;49.212;8.084;2022-11-15T05:12:21;938.93;;;880.67;;
61206;SDS011;47070;49.212;8.084;2022-11-15T05:16:22;944.17;;;885.67;;
61206;SDS011;47070;49.212;8.084;2022-11-15T05:20:22;942.10;;;883.63;;
61206;SDS011;47070;49.212;8.084;2022-11-15T05:24:23;940.75;;;882.25;;
61206;SDS011;47070;49.212;8.084;2022-11-15T05:28:23;938.33;;;880.03;;
61206;SDS011;47070;49.212;8.084;2022-11-15T05:32:24;944.65;;;886.17;;
61206;SDS011;47070;49.212;8.084;2022-11-15T05:36:27;947.45;;;888.80;;
61206;SDS011;47070;49.212;8.084;2022-11-15T05:40:33;942.28;;;883.60;;
61206;SDS011;47070;49.212;8.084;2022-11-15T05:44:35;938.00;;;879.42;;
61206;SDS011;47070;49.212;8.084;2022-11-15T05:48:38;935.20;;;876.67;;
61206;SDS011;47070;49.212;8.084;2022-11-15T05:52:43;942.37;;;883.60;;
61206;SDS011;47070;49.212;8.084;2022-11-15T05:56:45;945.80;;;887.22;;
61206;SDS011;47070;49.212;8.084;2022-11-15T06:00:46;935.67;;;877.50;;
61206;SDS011;47070;49.212;8.084;2022-11-15T06:04:46;944.95;;;886.35;;
61206;SDS011;47070;49.212;8.084;2022-11-15T06:08:47;928.97;;;870.97;;
61206;SDS011;47070;49.212;8.084;2022-11-15T06:12:55;936.65;;;878.38;;
61206;SDS011;47070;49.212;8.084;2022-11-15T06:16:59;927.47;;;869.55;;
61206;SDS011;47070;49.212;8.084;2022-11-15T06:21:00;928.57;;;870.43;;
61206;SDS011;47070;49.212;8.084;2022-11-15T06:25:01;930.37;;;872.40;;
61206;SDS011;47070;49.212;8.084;2022-11-15T06:29:02;925.27;;;867.23;;
61206;SDS011;47070;49.212;8.084;2022-11-15T06:33:04;922.30;;;864.60;;
61206;SDS011;47070;49.212;8.084;2022-11-15T06:37:05;912.65;;;855.08;;
61206;SDS011;47070;49.212;8.084;2022-11-15T06:41:07;912.30;;;854.83;;
61206;SDS011;47070;49.212;8.084;2022-11-15T06:45:08;915.33;;;857.83;;
61206;SDS011;47070;49.212;8.084;2022-11-15T06:49:09;897.63;;;840.50;;
61206;SDS011;47070;49.212;8.084;2022-11-15T06:53:09;902.57;;;845.30;;
61206;SDS011;47070;49.212;8.084;2022-11-15T06:57:10;897.43;;;840.50;;
61206;SDS011;47070;49.212;8.084;2022-11-15T07:01:11;898.78;;;841.78;;
61206;SDS011;47070;49.212;8.084;2022-11-15T07:05:12;896.38;;;839.40;;
61206;SDS011;47070;49.212;8.084;2022-11-15T07:09:13;907.17;;;849.83;;
61206;SDS011;47070;49.212;8.084;2022-11-15T07:13:14;902.13;;;845.00;;
61206;SDS011;47070;49.212;8.084;2022-11-15T07:17:14;896.00;;;839.10;;
61206;SDS011;47070;49.212;8.084;2022-11-15T07:21:15;898.07;;;841.07;;
61206;SDS011;47070;49.212;8.084;2022-11-15T07:25:15;904.37;;;847.07;;
61206;SDS011;47070;49.212;8.084;2022-11-15T07:29:16;927.47;;;869.63;;
61206;SDS011;47070;49.212;8.084;2022-11-15T07:33:16;908.47;;;851.17;;
61206;SDS011;47070;49.212;8.084;2022-11-15T07:37:17;915.53;;;857.80;;
61206;SDS011;47070;49.212;8.084;2022-11-15T07:41:18;913.67;;;856.15;;
61206;SDS011;47070;49.212;8.084;2022-11-15T07:45:19;935.43;;;876.97;;
61206;SDS011;47070;49.212;8.084;2022-11-15T07:49:20;925.37;;;867.30;;
61206;SDS011;47070;49.212;8.084;2022-11-15T07:53:20;936.63;;;877.90;;
61206;SDS011;47070;49.212;8.084;2022-11-15T07:57:21;937.57;;;877.97;;
61206;SDS011;47070;49.212;8.084;2022-11-15T08:01:21;936.73;;;877.47;;
61206;SDS011;47070;49.212;8.084;2022-11-15T08:05:22;942.05;;;883.05;;
61206;SDS011;47070;49.212;8.084;2022-11-15T08:09:23;939.87;;;881.07;;
61206;SDS011;47070;49.212;8.084;2022-11-15T08:13:23;952.72;;;893.35;;
61206;SDS011;47070;49.212;8.084;2022-11-15T08:17:24;960.55;;;900.97;;
61206;SDS011;47070;49.212;8.084;2022-11-15T08:21:25;957.88;;;898.08;;
61206;SDS011;47070;49.212;8.084;2022-11-15T08:25:26;959.97;;;899.83;;
61206;SDS011;47070;49.212;8.084;2022-11-15T08:29:28;963.60;;;903.90;;
61206;SDS011;47070;49.212;8.084;2022-11-15T08:33:29;965.33;;;905.73;;
61206;SDS011;47070;49.212;8.084;2022-11-15T08:37:30;967.88;;;908.42;;
61206;SDS011;47070;49.212;8.084;2022-11-15T08:41:31;974.83;;;914.93;;
61206;SDS011;47070;49.212;8.084;2022-11-15T08:45:34;975.53;;;915.72;;
61206;SDS011;47070;49.212;8.084;2022-11-15T08:49:35;977.13;;;917.22;;
61206;SDS011;47070;49.212;8.084;2022-11-15T08:53:35;974.07;;;914.23;;
61206;SDS011;47070;49.212;8.084;2022-11-15T08:57:36;985.20;;;924.90;;
61206;SDS011;47070;49.212;8.084;2022-11-15T09:01:36;975.33;;;915.50;;
61206;SDS011;47070;49.212;8.084;2022-11-15T09:05:37;995.20;;;934.80;;
61206;SDS011;47070;49.212;8.084;2022-11-15T09:09:37;986.83;;;926.67;;
61206;SDS011;47070;49.212;8.084;2022-11-15T09:13:38;1005.03;;;944.30;;
61206;SDS011;47070;49.212;8.084;2022-11-15T09:17:39;990.33;;;929.80;;
61206;SDS011;47070;49.212;8.084;2022-11-15T09:21:39;997.17;;;936.67;;
61206;SDS011;47070;49.212;8.084;2022-11-15T09:25:40;1000.45;;;939.83;;
61206;SDS011;47070;49.212;8.084;2022-11-15T09:29:40;1000.57;;;939.77;;
61206;SDS011;47070;49.212;8.084;2022-11-15T09:33:43;1000.85;;;940.45;;
61206;SDS011;47070;49.212;8.084;2022-11-15T09:37:43;1005.00;;;944.38;;
61206;SDS011;47070;49.212;8.084;2022-11-15T09:42:03;1000.53;;;940.00;;
61206;SDS011;47070;49.212;8.084;2022-11-15T09:46:23;1002.72;;;942.22;;
61206;SDS011;47070;49.212;8.084;2022-11-15T09:50:46;1002.55;;;942.15;;
61206;SDS011;47070;49.212;8.084;2022-11-15T09:54:49;1004.53;;;943.60;;
61206;SDS011;47070;49.212;8.084;2022-11-15T09:58:54;997.40;;;937.10;;
61206;SDS011;47070;49.212;8.084;2022-11-15T10:03:28;995.37;;;934.97;;
61206;SDS011;47070;49.212;8.084;2022-11-15T10:07:35;1011.40;;;947.40;;
61206;SDS011;47070;49.212;8.084;2022-11-15T10:11:44;1005.30;;;944.40;;
61206;SDS011;47070;49.212;8.084;2022-11-15T10:15:45;1006.87;;;945.97;;
61206;SDS011;47070;49.212;8.084;2022-11-15T10:20:10;1001.03;;;940.67;;
61206;SDS011;47070;49.212;8.084;2022-11-15T10:24:30;1001.63;;;940.90;;
61206;SDS011;47070;49.212;8.084;2022-11-15T10:28:37;1002.15;;;941.67;;
61206;SDS011;47070;49.212;8.084;2022-11-15T10:32:37;1011.73;;;950.90;;
61206;SDS011;47070;49.212;8.084;2022-11-15T10:36:39;1017.28;;;956.08;;
61206;SDS011;47070;49.212;8.084;2022-11-15T10:40:54;1028.50;;;966.95;;
61206;SDS011;47070;49.212;8.084;2022-11-15T10:49:38;1038.68;;;976.90;;
61206;SDS011;47070;49.212;8.084;2022-11-15T10:53:57;1045.75;;;983.88;;
61206;SDS011;47070;49.212;8.084;2022-11-15T10:58:18;1050.80;;;988.65;;
61206;SDS011;47070;49.212;8.084;2022-11-15T11:02:40;1056.00;;;993.53;;
61206;SDS011;47070;49.212;8.084;2022-11-15T11:07:02;1063.10;;;999.90;;
61206;SDS011;47070;49.212;8.084;2022-11-15T11:11:19;1070.15;;;999.90;;
61206;SDS011;47070;49.212;8.084;2022-11-15T11:15:19;1077.73;;;999.90;;
61206;SDS011;47070;49.212;8.084;2022-11-15T11:19:32;1072.93;;;999.90;;
61206;SDS011;47070;49.212;8.084;2022-11-15T11:32:32;1078.82;;;999.90;;
61206;SDS011;47070;49.212;8.084;2022-11-15T11:49:42;1095.05;;;999.90;;
61206;SDS011;47070;49.212;8.084;2022-11-15T11:58:43;1099.32;;;999.90;;
61206;SDS011;47070;49.212;8.084;2022-11-15T12:07:15;1109.33;;;999.90;;
61206;SDS011;47070;49.212;8.084;2022-11-15T12:15:56;1116.57;;;999.90;;
61206;SDS011;47070;49.212;8.084;2022-11-15T12:20:03;1119.38;;;999.90;;
61206;SDS011;47070;49.212;8.084;2022-11-15T12:24:16;1127.95;;;999.90;;
61206;SDS011;47070;49.212;8.084;2022-11-15T12:32:57;1126.40;;;999.90;;
61206;SDS011;47070;49.212;8.084;2022-11-15T12:36:59;1125.30;;;999.90;;
61206;SDS011;47070;49.212;8.084;2022-11-15T12:41:13;1126.60;;;999.90;;
61206;SDS011;47070;49.212;8.084;2022-11-15T12:53:33;1132.27;;;999.90;;
61206;SDS011;47070;49.212;8.084;2022-11-15T12:57:35;1143.05;;;999.90;;
61206;SDS011;47070;49.212;8.084;2022-11-15T13:13:44;1131.23;;;999.90;;
61206;SDS011;47070;49.212;8.084;2022-11-15T13:17:45;1127.43;;;999.90;;
61206;SDS011;47070;49.212;8.084;2022-11-15T13:21:50;1131.18;;;999.90;;
61206;SDS011;47070;49.212;8.084;2022-11-15T13:26:12;1115.30;;;999.90;;
61206;SDS011;47070;49.212;8.084;2022-11-15T13:30:20;1117.10;;;999.90;;
61206;SDS011;47070;49.212;8.084;2022-11-15T13:34:26;1117.70;;;999.90;;
61206;SDS011;47070;49.212;8.084;2022-11-15T13:42:29;1113.68;;;999.90;;
61206;SDS011;47070;49.212;8.084;2022-11-15T13:46:33;1113.60;;;999.90;;
61206;SDS011;47070;49.212;8.084;2022-11-15T13:50:34;1109.47;;;999.90;;
61206;SDS011;47070;49.212;8.084;2022-11-15T13:54:40;1104.22;;;999.90;;
61206;SDS011;47070;49.212;8.084;2022-11-15T13:58:50;1099.80;;;999.90;;
61206;SDS011;47070;49.212;8.084;2022-11-15T14:02:53;1094.23;;;999.90;;
61206;SDS011;47070;49.212;8.084;2022-11-15T14:06:56;1093.28;;;999.90;;
61206;SDS011;47070;49.212;8.084;2022-11-15T14:15:39;1090.57;;;999.90;;
61206;SDS011;47070;49.212;8.084;2022-11-15T14:19:39;1086.70;;;999.90;;
61206;SDS011;47070;49.212;8.084;2022-11-15T14:23:40;1088.97;;;999.90;;
61206;SDS011;47070;49.212;8.084;2022-11-15T14:27:41;1089.28;;;999.90;;
61206;SDS011;47070;49.212;8.084;2022-11-15T14:31:43;1085.33;;;999.90;;
61206;SDS011;47070;49.212;8.084;2022-11-15T14:35:46;1087.25;;;999.90;;
61206;SDS011;47070;49.212;8.084;2022-11-15T14:39:47;1081.93;;;999.90;;
61206;SDS011;47070;49.212;8.084;2022-11-15T14:43:48;1081.90;;;999.90;;
61206;SDS011;47070;49.212;8.084;2022-11-15T14:47:49;1075.03;;;999.90;;
61206;SDS011;47070;49.212;8.084;2022-11-15T14:51:50;1073.87;;;999.90;;
61206;SDS011;47070;49.212;8.084;2022-11-15T14:55:50;1065.93;;;999.90;;
61206;SDS011;47070;49.212;8.084;2022-11-15T14:59:51;1071.40;;;999.90;;
61206;SDS011;47070;49.212;8.084;2022-11-15T15:03:52;1056.97;;;994.87;;
61206;SDS011;47070;49.212;8.084;2022-11-15T15:07:55;1067.00;;;999.90;;
61206;SDS011;47070;49.212;8.084;2022-11-15T15:11:56;1066.50;;;999.90;;
61206;SDS011;47070;49.212;8.084;2022-11-15T15:15:56;1072.33;;;999.90;;
61206;SDS011;47070;49.212;8.084;2022-11-15T15:19:57;1056.37;;;993.97;;
61206;SDS011;47070;49.212;8.084;2022-11-15T15:23:57;1059.15;;;996.60;;
61206;SDS011;47070;49.212;8.084;2022-11-15T15:27:58;1050.60;;;988.57;;
61206;SDS011;47070;49.212;8.084;2022-11-15T15:31:59;1054.85;;;992.40;;
61206;SDS011;47070;49.212;8.084;2022-11-15T15:35:59;1055.65;;;993.20;;
61206;SDS011;47070;49.212;8.084;2022-11-15T15:40:00;1047.73;;;985.77;;
61206;SDS011;47070;49.212;8.084;2022-11-15T15:44:00;1047.57;;;985.65;;
61206;SDS011;47070;49.212;8.084;2022-11-15T15:48:01;1047.80;;;985.80;;
61206;SDS011;47070;49.212;8.084;2022-11-15T15:52:01;1036.27;;;974.83;;
61206;SDS011;47070;49.212;8.084;2022-11-15T15:56:02;1033.00;;;971.40;;
61206;SDS011;47070;49.212;8.084;2022-11-15T16:00:03;1038.40;;;976.67;;
61206;SDS011;47070;49.212;8.084;2022-11-15T16:04:04;1041.70;;;979.93;;
61206;SDS011;47070;49.212;8.084;2022-11-15T16:08:05;1032.60;;;971.10;;
61206;SDS011;47070;49.212;8.084;2022-11-15T16:12:05;1030.15;;;968.80;;
61206;SDS011;47070;49.212;8.084;2022-11-15T16:16:07;1033.40;;;971.87;;
61206;SDS011;47070;49.212;8.084;2022-11-15T16:20:21;1028.13;;;966.80;;
61206;SDS011;47070;49.212;8.084;2022-11-15T16:24:33;1028.03;;;966.73;;
61206;SDS011;47070;49.212;8.084;2022-11-15T16:28:34;1031.93;;;970.40;;
61206;SDS011;47070;49.212;8.084;2022-11-15T16:32:34;1032.17;;;970.67;;
61206;SDS011;47070;49.212;8.084;2022-11-15T16:36:35;1012.03;;;951.47;;
61206;SDS011;47070;49.212;8.084;2022-11-15T16:40:35;1015.53;;;954.83;;
61206;SDS011;47070;49.212;8.084;2022-11-15T16:44:36;1012.97;;;952.30;;
61206;SDS011;47070;49.212;8.084;2022-11-15T16:48:37;1003.67;;;943.37;;
61206;SDS011;47070;49.212;8.084;2022-11-15T16:52:39;1010.93;;;950.33;;
61206;SDS011;47070;49.212;8.084;2022-11-15T16:56:39;1014.93;;;954.13;;
61206;SDS011;47070;49.212;8.084;2022-11-15T17:00:41;1016.42;;;955.55;;
61206;SDS011;47070;49.212;8.084;2022-11-15T17:04:41;1004.38;;;943.92;;
61206;SDS011;47070;49.212;8.084;2022-11-15T17:08:42;1009.27;;;948.83;;
61206;SDS011;47070;49.212;8.084;2022-11-15T17:12:42;1004.28;;;944.00;;
61206;SDS011;47070;49.212;8.084;2022-11-15T17:16:43;1003.65;;;943.33;;
61206;SDS011;47070;49.212;8.084;2022-11-15T17:20:44;996.77;;;936.77;;
61206;SDS011;47070;49.212;8.084;2022-11-15T17:24:44;998.43;;;938.03;;
61206;SDS011;47070;49.212;8.084;2022-11-15T17:28:45;1005.60;;;945.30;;
61206;SDS011;47070;49.212;8.084;2022-11-15T17:32:45;1003.03;;;942.53;;
61206;SDS011;47070;49.212;8.084;2022-11-15T17:36:47;1010.33;;;949.53;;
61206;SDS011;47070;49.212;8.084;2022-11-15T17:40:48;1013.97;;;952.95;;
61206;SDS011;47070;49.212;8.084;2022-11-15T17:44:48;1012.58;;;951.47;;
61206;SDS011;47070;49.212;8.084;2022-11-15T17:48:49;1004.47;;;943.97;;
61206;SDS011;47070;49.212;8.084;2022-11-15T17:52:49;999.85;;;939.58;;
61206;SDS011;47070;49.212;8.084;2022-11-15T17:56:50;998.80;;;938.47;;
61206;SDS011;47070;49.212;8.084;2022-11-15T18:00:50;1001.95;;;941.60;;
61206;SDS011;47070;49.212;8.084;2022-11-15T18:04:51;1006.50;;;945.77;;
61206;SDS011;47070;49.212;8.084;2022-11-15T18:08:52;998.08;;;937.78;;
61206;SDS011;47070;49.212;8.084;2022-11-15T18:12:54;1005.75;;;945.08;;
61206;SDS011;47070;49.212;8.084;2022-11-15T18:16:55;1000.83;;;940.53;;
61206;SDS011;47070;49.212;8.084;2022-11-15T18:21:02;1000.93;;;939.83;;
61206;SDS011;47070;49.212;8.084;2022-11-15T18:25:04;998.88;;;938.13;;
61206;SDS011;47070;49.212;8.084;2022-11-15T18:29:04;1005.17;;;944.42;;
61206;SDS011;47070;49.212;8.084;2022-11-15T18:33:05;1001.80;;;941.13;;
61206;SDS011;47070;49.212;8.084;2022-11-15T18:37:05;1003.53;;;942.70;;
61206;SDS011;47070;49.212;8.084;2022-11-15T18:41:13;1011.10;;;949.90;;
61206;SDS011;47070;49.212;8.084;2022-11-15T18:45:18;1013.65;;;952.35;;
61206;SDS011;47070;49.212;8.084;2022-11-15T18:49:18;1002.00;;;941.38;;
61206;SDS011;47070;49.212;8.084;2022-11-15T18:53:19;1000.63;;;940.00;;
61206;SDS011;47070;49.212;8.084;2022-11-15T18:57:19;1003.40;;;942.60;;
61206;SDS011;47070;49.212;8.084;2022-11-15T19:01:21;1009.67;;;948.77;;
61206;SDS011;47070;49.212;8.084;2022-11-15T19:05:23;991.87;;;931.67;;
61206;SDS011;47070;49.212;8.084;2022-11-15T19:09:24;989.80;;;929.50;;
61206;SDS011;47070;49.212;8.084;2022-11-15T19:13:31;1001.35;;;940.75;;
61206;SDS011;47070;49.212;8.084;2022-11-15T19:17:32;990.63;;;930.33;;
61206;SDS011;47070;49.212;8.084;2022-11-15T19:21:32;990.47;;;929.93;;
61206;SDS011;47070;49.212;8.084;2022-11-15T19:25:33;983.90;;;923.78;;
61206;SDS011;47070;49.212;8.084;2022-11-15T19:29:34;982.10;;;922.13;;
61206;SDS011;47070;49.212;8.084;2022-11-15T19:33:34;985.00;;;925.10;;
61206;SDS011;47070;49.212;8.084;2022-11-15T19:37:35;977.60;;;917.90;;
61206;SDS011;47070;49.212;8.084;2022-11-15T19:41:36;976.15;;;916.67;;
61206;SDS011;47070;49.212;8.084;2022-11-15T19:45:39;980.03;;;919.92;;
61206;SDS011;47070;49.212;8.084;2022-11-15T19:49:39;982.00;;;922.37;;
61206;SDS011;47070;49.212;8.084;2022-11-15T19:53:40;990.43;;;930.50;;
61206;SDS011;47070;49.212;8.084;2022-11-15T19:57:40;994.65;;;933.97;;
61206;SDS011;47070;49.212;8.084;2022-11-15T20:01:41;985.70;;;925.40;;
61206;SDS011;47070;49.212;8.084;2022-11-15T20:05:42;978.80;;;919.00;;
61206;SDS011;47070;49.212;8.084;2022-11-15T20:09:42;982.07;;;922.03;;
61206;SDS011;47070;49.212;8.084;2022-11-15T20:13:43;989.83;;;929.57;;
61206;SDS011;47070;49.212;8.084;2022-11-15T20:17:43;986.33;;;926.13;;
61206;SDS011;47070;49.212;8.084;2022-11-15T20:21:44;989.40;;;929.37;;
61206;SDS011;47070;49.212;8.084;2022-11-15T20:25:44;984.60;;;924.60;;
61206;SDS011;47070;49.212;8.084;2022-11-15T20:29:46;986.65;;;926.60;;
61206;SDS011;47070;49.212;8.084;2022-11-15T20:33:47;991.67;;;931.53;;
61206;SDS011;47070;49.212;8.084;2022-11-15T20:37:48;986.57;;;926.70;;
61206;SDS011;47070;49.212;8.084;2022-11-15T20:41:48;988.00;;;927.47;;
61206;SDS011;47070;49.212;8.084;2022-11-15T20:45:49;989.20;;;928.20;;
61206;SDS011;47070;49.212;8.084;2022-11-15T20:49:49;989.63;;;929.28;;
61206;SDS011;47070;49.212;8.084;2022-11-15T20:53:50;993.63;;;933.23;;
61206;SDS011;47070;49.212;8.084;2022-11-15T20:57:50;996.80;;;936.40;;
61206;SDS011;47070;49.212;8.084;2022-11-15T21:01:51;995.83;;;935.40;;
61206;SDS011;47070;49.212;8.084;2022-11-15T21:05:52;994.42;;;933.95;;
61206;SDS011;47070;49.212;8.084;2022-11-15T21:09:53;994.95;;;934.72;;
61206;SDS011;47070;49.212;8.084;2022-11-15T21:14:12;991.80;;;931.38;;
61206;SDS011;47070;49.212;8.084;2022-11-15T21:18:12;994.93;;;934.57;;
61206;SDS011;47070;49.212;8.084;2022-11-15T21:22:14;996.90;;;936.40;;
61206;SDS011;47070;49.212;8.084;2022-11-15T21:26:14;989.17;;;928.70;;
61206;SDS011;47070;49.212;8.084;2022-11-15T21:30:15;991.40;;;930.92;;
61206;SDS011;47070;49.212;8.084;2022-11-15T21:34:16;995.88;;;935.38;;
61206;SDS011;47070;49.212;8.084;2022-11-15T21:38:17;1005.20;;;944.67;;
61206;SDS011;47070;49.212;8.084;2022-11-15T21:42:17;988.97;;;928.57;;
61206;SDS011;47070;49.212;8.084;2022-11-15T21:46:18;983.40;;;923.60;;
61206;SDS011;47070;49.212;8.084;2022-11-15T21:50:18;991.73;;;931.43;;
61206;SDS011;47070;49.212;8.084;2022-11-15T21:54:19;993.33;;;933.13;;
61206;SDS011;47070;49.212;8.084;2022-11-15T21:58:20;990.30;;;930.27;;
61206;SDS011;47070;49.212;8.084;2022-11-15T22:02:21;997.20;;;936.58;;
61206;SDS011;47070;49.212;8.084;2022-11-15T22:06:21;995.73;;;935.37;;
61206;SDS011;47070;49.212;8.084;2022-11-15T22:10:23;993.30;;;933.13;;
61206;SDS011;47070;49.212;8.084;2022-11-15T22:14:23;990.83;;;930.53;;
61206;SDS011;47070;49.212;8.084;2022-11-15T22:18:24;990.83;;;930.78;;
61206;SDS011;47070;49.212;8.084;2022-11-15T22:22:24;998.27;;;937.80;;
61206;SDS011;47070;49.212;8.084;2022-11-15T22:26:25;998.38;;;937.97;;
61206;SDS011;47070;49.212;8.084;2022-11-15T22:30:26;995.93;;;935.30;;
61206;SDS011;47070;49.212;8.084;2022-11-15T22:34:26;991.28;;;931.00;;
61206;SDS011;47070;49.212;8.084;2022-11-15T22:38:27;995.27;;;934.87;;
61206;SDS011;47070;49.212;8.084;2022-11-15T22:42:28;988.70;;;928.70;;
61206;SDS011;47070;49.212;8.084;2022-11-15T22:46:28;992.10;;;931.87;;
61206;SDS011;47070;49.212;8.084;2022-11-15T22:50:29;980.67;;;920.73;;
61206;SDS011;47070;49.212;8.084;2022-11-15T22:54:30;979.47;;;919.53;;
61206;SDS011;47070;49.212;8.084;2022-11-15T22:58:31;975.20;;;915.50;;
61206;SDS011;47070;49.212;8.084;2022-11-15T23:02:32;977.73;;;918.10;;
61206;SDS011;47070;49.212;8.084;2022-11-15T23:06:33;980.83;;;921.17;;
61206;SDS011;47070;49.212;8.084;2022-11-15T23:10:33;985.97;;;926.10;;
61206;SDS011;47070;49.212;8.084;2022-11-15T23:14:52;992.72;;;932.53;;
61206;SDS011;47070;49.212;8.084;2022-11-15T23:18:56;987.30;;;927.40;;
61206;SDS011;47070;49.212;8.084;2022-11-15T23:22:58;986.15;;;926.15;;
61206;SDS011;47070;49.212;8.084;2022-11-15T23:26:59;991.57;;;931.47;;
61206;SDS011;47070;49.212;8.084;2022-11-15T23:31:02;986.33;;;926.33;;
61206;SDS011;47070;49.212;8.084;2022-11-15T23:35:33;990.87;;;930.90;;
61206;SDS011;47070;49.212;8.084;2022-11-15T23:39:34;990.00;;;930.07;;
61206;SDS011;47070;49.212;8.084;2022-11-15T23:43:34;990.17;;;930.07;;
61206;SDS011;47070;49.212;8.084;2022-11-15T23:47:35;996.60;;;936.37;;
61206;SDS011;47070;49.212;8.084;2022-11-15T23:51:36;989.97;;;929.87;;
61206;SDS011;47070;49.212;8.084;2022-11-15T23:55:36;989.63;;;929.43;;
61206;SDS011;47070;49.212;8.084;2022-11-15T23:59:37;993.50;;;933.20;;
